Leakesville, Mississippi
Current Conditions -  °F | °C
As of 10:56 AM on Friday 24 Oct 2014 (Local Time) from KMOB Reporting Station
Few Clouds Few Clouds  
Wind Chill: 68°   Ceiling: Unl
Heat Index: 68°   Visibility: 10mi
Dew Point: 48°   Wind: 6mph
Humidity: 49%   Direction: 10°N
Pressure: 30.1"   Gusts: NA
Location:  31.16°N, 88.56°W
Report Text: KMOB 241556Z 01005KT 10SM FEW060 FEW150 20/09 A3010 RMK AO2 SLP191 T02000089
Loading
Personal Weather Stations






























Interactive Weather Map
Tropical Storm Tracking
New forecast layout! Learn more

10-Day Weather Forecast

Advertisements
Track Severe Weather on mobile